sensor_id;sensor_type;location;lat;lon;timestamp;pressure;altitude;pressure_sealevel;temperature;humidity
19128;BME280;9696;53.686;10.094;2023-05-11T00:00:13;101313.56;;;11.86;100.00
19128;BME280;9696;53.686;10.094;2023-05-11T00:02:43;101306.72;;;11.94;100.00
19128;BME280;9696;53.686;10.094;2023-05-11T00:05:13;101308.88;;;11.89;100.00
19128;BME280;9696;53.686;10.094;2023-05-11T00:07:42;101312.34;;;11.90;100.00
19128;BME280;9696;53.686;10.094;2023-05-11T00:10:11;101315.44;;;11.95;100.00
19128;BME280;9696;53.686;10.094;2023-05-11T00:12:40;101310.31;;;11.93;100.00
19128;BME280;9696;53.686;10.094;2023-05-11T00:15:11;101308.13;;;11.66;100.00
19128;BME280;9696;53.686;10.094;2023-05-11T00:17:40;101307.88;;;11.80;100.00
19128;BME280;9696;53.686;10.094;2023-05-11T00:20:10;101313.34;;;11.89;100.00
19128;BME280;9696;53.686;10.094;2023-05-11T00:22:39;101320.50;;;11.87;100.00
19128;BME280;9696;53.686;10.094;2023-05-11T00:25:11;101310.94;;;11.86;100.00
19128;BME280;9696;53.686;10.094;2023-05-11T00:27:41;101310.31;;;11.72;100.00
19128;BME280;9696;53.686;10.094;2023-05-11T00:30:15;101316.00;;;11.77;100.00
19128;BME280;9696;53.686;10.094;2023-05-11T00:32:44;101319.81;;;11.85;100.00
19128;BME280;9696;53.686;10.094;2023-05-11T00:35:14;101325.81;;;11.75;100.00
19128;BME280;9696;53.686;10.094;2023-05-11T00:37:43;101317.41;;;11.81;100.00
19128;BME280;9696;53.686;10.094;2023-05-11T00:40:12;101312.03;;;11.83;100.00
19128;BME280;9696;53.686;10.094;2023-05-11T00:42:41;101322.28;;;11.86;100.00
19128;BME280;9696;53.686;10.094;2023-05-11T00:45:10;101325.44;;;11.80;100.00
19128;BME280;9696;53.686;10.094;2023-05-11T00:47:41;101318.38;;;11.80;100.00
19128;BME280;9696;53.686;10.094;2023-05-11T00:50:10;101314.97;;;11.90;100.00
19128;BME280;9696;53.686;10.094;2023-05-11T00:52:40;101319.41;;;11.89;100.00
19128;BME280;9696;53.686;10.094;2023-05-11T00:55:12;101314.75;;;11.93;100.00
19128;BME280;9696;53.686;10.094;2023-05-11T00:57:41;101314.88;;;11.91;100.00
19128;BME280;9696;53.686;10.094;2023-05-11T01:00:12;101308.88;;;11.89;100.00
19128;BME280;9696;53.686;10.094;2023-05-11T01:02:43;101313.13;;;11.80;100.00
19128;BME280;9696;53.686;10.094;2023-05-11T01:05:12;101316.41;;;11.94;100.00
19128;BME280;9696;53.686;10.094;2023-05-11T01:07:47;101318.03;;;11.85;100.00
19128;BME280;9696;53.686;10.094;2023-05-11T01:10:22;101317.19;;;11.85;100.00
19128;BME280;9696;53.686;10.094;2023-05-11T01:13:01;101318.75;;;11.76;100.00
19128;BME280;9696;53.686;10.094;2023-05-11T01:15:40;101320.28;;;11.78;100.00
19128;BME280;9696;53.686;10.094;2023-05-11T01:18:21;101322.22;;;11.76;100.00
19128;BME280;9696;53.686;10.094;2023-05-11T01:20:57;101317.19;;;11.73;100.00
19128;BME280;9696;53.686;10.094;2023-05-11T01:23:43;101326.28;;;11.80;100.00
19128;BME280;9696;53.686;10.094;2023-05-11T01:26:32;101330.97;;;11.77;100.00
19128;BME280;9696;53.686;10.094;2023-05-11T01:29:13;101327.34;;;11.67;100.00
19128;BME280;9696;53.686;10.094;2023-05-11T01:31:54;101323.63;;;11.69;100.00
19128;BME280;9696;53.686;10.094;2023-05-11T01:34:25;101331.66;;;11.68;100.00
19128;BME280;9696;53.686;10.094;2023-05-11T01:36:59;101321.41;;;11.65;100.00
19128;BME280;9696;53.686;10.094;2023-05-11T01:39:36;101332.34;;;11.70;100.00
19128;BME280;9696;53.686;10.094;2023-05-11T01:42:08;101322.47;;;11.62;100.00
19128;BME280;9696;53.686;10.094;2023-05-11T01:44:41;101329.72;;;11.70;100.00
19128;BME280;9696;53.686;10.094;2023-05-11T01:47:14;101331.09;;;11.64;100.00
19128;BME280;9696;53.686;10.094;2023-05-11T01:49:45;101329.28;;;11.65;100.00
19128;BME280;9696;53.686;10.094;2023-05-11T01:52:15;101334.19;;;11.58;100.00
19128;BME280;9696;53.686;10.094;2023-05-11T01:54:46;101334.66;;;11.63;100.00
19128;BME280;9696;53.686;10.094;2023-05-11T01:57:17;101333.53;;;11.45;100.00
19128;BME280;9696;53.686;10.094;2023-05-11T01:59:48;101340.53;;;11.56;100.00
19128;BME280;9696;53.686;10.094;2023-05-11T02:02:19;101340.16;;;11.60;100.00
19128;BME280;9696;53.686;10.094;2023-05-11T02:04:49;101340.03;;;11.73;100.00
19128;BME280;9696;53.686;10.094;2023-05-11T02:07:20;101341.47;;;11.77;100.00
19128;BME280;9696;53.686;10.094;2023-05-11T02:09:50;101345.50;;;11.70;100.00
19128;BME280;9696;53.686;10.094;2023-05-11T02:12:22;101340.16;;;11.60;100.00
19128;BME280;9696;53.686;10.094;2023-05-11T02:14:53;101343.13;;;11.67;100.00
19128;BME280;9696;53.686;10.094;2023-05-11T02:17:25;101341.00;;;11.61;100.00
19128;BME280;9696;53.686;10.094;2023-05-11T02:19:55;101350.56;;;11.51;100.00
19128;BME280;9696;53.686;10.094;2023-05-11T02:22:25;101343.13;;;11.67;100.00
19128;BME280;9696;53.686;10.094;2023-05-11T02:24:56;101348.53;;;11.54;100.00
19128;BME280;9696;53.686;10.094;2023-05-11T02:27:25;101352.50;;;11.49;100.00
19128;BME280;9696;53.686;10.094;2023-05-11T02:29:55;101358.81;;;11.46;100.00
19128;BME280;9696;53.686;10.094;2023-05-11T02:32:26;101359.41;;;11.50;100.00
19128;BME280;9696;53.686;10.094;2023-05-11T02:35:00;101368.59;;;11.55;100.00
19128;BME280;9696;53.686;10.094;2023-05-11T02:37:30;101365.28;;;11.53;100.00
19128;BME280;9696;53.686;10.094;2023-05-11T02:40:04;101359.41;;;11.50;100.00
19128;BME280;9696;53.686;10.094;2023-05-11T02:42:37;101366.00;;;11.44;100.00
19128;BME280;9696;53.686;10.094;2023-05-11T02:45:08;101364.56;;;11.51;100.00
19128;BME280;9696;53.686;10.094;2023-05-11T02:47:42;101361.97;;;11.40;100.00
19128;BME280;9696;53.686;10.094;2023-05-11T02:50:19;101365.66;;;11.49;100.00
19128;BME280;9696;53.686;10.094;2023-05-11T02:52:50;101369.22;;;11.48;100.00
19128;BME280;9696;53.686;10.094;2023-05-11T02:55:22;101366.25;;;11.41;100.00
19128;BME280;9696;53.686;10.094;2023-05-11T02:57:51;101369.84;;;11.29;100.00
19128;BME280;9696;53.686;10.094;2023-05-11T03:00:21;101371.38;;;11.43;100.00
19128;BME280;9696;53.686;10.094;2023-05-11T03:02:52;101370.31;;;11.45;100.00
19128;BME280;9696;53.686;10.094;2023-05-11T03:05:22;101376.50;;;11.44;100.00
19128;BME280;9696;53.686;10.094;2023-05-11T03:07:53;101374.72;;;11.45;100.00
19128;BME280;9696;53.686;10.094;2023-05-11T03:10:27;101367.44;;;11.48;100.00
19128;BME280;9696;53.686;10.094;2023-05-11T03:12:57;101370.91;;;11.49;100.00
19128;BME280;9696;53.686;10.094;2023-05-11T03:15:27;101364.69;;;11.39;100.00
19128;BME280;9696;53.686;10.094;2023-05-11T03:18:00;101370.53;;;11.42;100.00
19128;BME280;9696;53.686;10.094;2023-05-11T03:20:31;101368.66;;;11.33;100.00
19128;BME280;9696;53.686;10.094;2023-05-11T03:23:01;101366.00;;;11.44;100.00
19128;BME280;9696;53.686;10.094;2023-05-11T03:25:32;101373.06;;;11.44;100.00
19128;BME280;9696;53.686;10.094;2023-05-11T03:28:02;101366.25;;;11.30;100.00
19128;BME280;9696;53.686;10.094;2023-05-11T03:30:34;101364.25;;;11.33;100.00
19128;BME280;9696;53.686;10.094;2023-05-11T03:33:06;101368.63;;;11.44;100.00
19128;BME280;9696;53.686;10.094;2023-05-11T03:35:35;101370.78;;;11.39;100.00
19128;BME280;9696;53.686;10.094;2023-05-11T03:38:05;101367.22;;;11.40;100.00
19128;BME280;9696;53.686;10.094;2023-05-11T03:40:37;101372.56;;;11.39;100.00
19128;BME280;9696;53.686;10.094;2023-05-11T03:43:09;101371.38;;;11.43;100.00
19128;BME280;9696;53.686;10.094;2023-05-11T03:45:41;101368.53;;;11.23;100.00
19128;BME280;9696;53.686;10.094;2023-05-11T03:48:14;101366.47;;;11.38;100.00
19128;BME280;9696;53.686;10.094;2023-05-11T03:50:43;101365.06;;;11.34;100.00
19128;BME280;9696;53.686;10.094;2023-05-11T03:53:13;101361.59;;;11.45;100.00
19128;BME280;9696;53.686;10.094;2023-05-11T03:55:43;101369.22;;;11.48;100.00
19128;BME280;9696;53.686;10.094;2023-05-11T03:58:12;101364.06;;;11.46;100.00
19128;BME280;9696;53.686;10.094;2023-05-11T04:00:42;101363.38;;;11.44;100.00
19128;BME280;9696;53.686;10.094;2023-05-11T04:03:13;101369.13;;;11.49;100.00
19128;BME280;9696;53.686;10.094;2023-05-11T04:05:42;101368.13;;;11.50;100.00
19128;BME280;9696;53.686;10.094;2023-05-11T04:08:13;101365.13;;;11.55;100.00
19128;BME280;9696;53.686;10.094;2023-05-11T04:10:42;101364.56;;;11.51;100.00
19128;BME280;9696;53.686;10.094;2023-05-11T04:13:11;101366.94;;;11.54;100.00
19128;BME280;9696;53.686;10.094;2023-05-11T04:15:40;101366.69;;;11.46;100.00
19128;BME280;9696;53.686;10.094;2023-05-11T04:18:09;101370.41;;;11.55;100.00
19128;BME280;9696;53.686;10.094;2023-05-11T04:20:40;101368.03;;;11.52;100.00
19128;BME280;9696;53.686;10.094;2023-05-11T04:23:09;101360.78;;;11.33;100.00
19128;BME280;9696;53.686;10.094;2023-05-11T04:25:38;101373.19;;;11.31;100.00
19128;BME280;9696;53.686;10.094;2023-05-11T04:28:07;101369.94;;;11.39;100.00
19128;BME280;9696;53.686;10.094;2023-05-11T04:30:36;101372.56;;;11.39;100.00
19128;BME280;9696;53.686;10.094;2023-05-11T04:33:05;101378.63;;;11.50;100.00
19128;BME280;9696;53.686;10.094;2023-05-11T04:35:40;101378.53;;;11.52;100.00
19128;BME280;9696;53.686;10.094;2023-05-11T04:38:09;101382.25;;;11.49;100.00
19128;BME280;9696;53.686;10.094;2023-05-11T04:40:38;101382.34;;;11.48;100.00
19128;BME280;9696;53.686;10.094;2023-05-11T04:43:08;101385.38;;;11.32;100.00
19128;BME280;9696;53.686;10.094;2023-05-11T04:45:37;101393.97;;;11.45;100.00
19128;BME280;9696;53.686;10.094;2023-05-11T04:48:07;101390.50;;;11.45;100.00
19128;BME280;9696;53.686;10.094;2023-05-11T04:50:36;101393.69;;;11.48;100.00
19128;BME280;9696;53.686;10.094;2023-05-11T04:53:07;101388.78;;;11.55;100.00
19128;BME280;9696;53.686;10.094;2023-05-11T04:55:36;101393.34;;;11.53;100.00
19128;BME280;9696;53.686;10.094;2023-05-11T04:58:05;101398.00;;;11.38;100.00
19128;BME280;9696;53.686;10.094;2023-05-11T05:00:34;101408.75;;;11.57;100.00
19128;BME280;9696;53.686;10.094;2023-05-11T05:03:04;101400.50;;;11.40;100.00
19128;BME280;9696;53.686;10.094;2023-05-11T05:05:34;101401.25;;;11.42;100.00
19128;BME280;9696;53.686;10.094;2023-05-11T05:08:05;101411.81;;;11.62;100.00
19128;BME280;9696;53.686;10.094;2023-05-11T05:10:35;101409.94;;;11.53;100.00
19128;BME280;9696;53.686;10.094;2023-05-11T05:13:04;101411.13;;;11.60;100.00
19128;BME280;9696;53.686;10.094;2023-05-11T05:15:33;101405.41;;;11.44;100.00
19128;BME280;9696;53.686;10.094;2023-05-11T05:18:03;101416.00;;;11.54;100.00
19128;BME280;9696;53.686;10.094;2023-05-11T05:20:33;101419.47;;;11.76;100.00
19128;BME280;9696;53.686;10.094;2023-05-11T05:23:03;101421.75;;;11.81;100.00
19128;BME280;9696;53.686;10.094;2023-05-11T05:25:35;101413.09;;;11.90;100.00
19128;BME280;9696;53.686;10.094;2023-05-11T05:28:04;101419.69;;;11.85;100.00
19128;BME280;9696;53.686;10.094;2023-05-11T05:30:33;101421.56;;;12.05;100.00
19128;BME280;9696;53.686;10.094;2023-05-11T05:33:04;101422.66;;;11.91;100.00
19128;BME280;9696;53.686;10.094;2023-05-11T05:35:35;101417.97;;;11.95;100.00
19128;BME280;9696;53.686;10.094;2023-05-11T05:38:05;101425.03;;;11.94;100.00
19128;BME280;9696;53.686;10.094;2023-05-11T05:40:35;101419.25;;;12.11;100.00
19128;BME280;9696;53.686;10.094;2023-05-11T05:43:06;101426.34;;;12.00;100.00
19128;BME280;9696;53.686;10.094;2023-05-11T05:45:36;101426.19;;;12.01;100.00
19128;BME280;9696;53.686;10.094;2023-05-11T05:48:06;101427.34;;;11.88;100.00
19128;BME280;9696;53.686;10.094;2023-05-11T05:50:36;101427.81;;;11.93;100.00
19128;BME280;9696;53.686;10.094;2023-05-11T05:53:06;101426.72;;;11.95;100.00
19128;BME280;9696;53.686;10.094;2023-05-11T05:55:37;101430.97;;;12.07;100.00
19128;BME280;9696;53.686;10.094;2023-05-11T05:58:06;101433.72;;;12.06;100.00
19128;BME280;9696;53.686;10.094;2023-05-11T06:00:43;101426.81;;;12.25;100.00
19128;BME280;9696;53.686;10.094;2023-05-11T06:03:13;101433.06;;;11.93;100.00
19128;BME280;9696;53.686;10.094;2023-05-11T06:05:42;101436.72;;;12.01;100.00
19128;BME280;9696;53.686;10.094;2023-05-11T06:08:12;101434.19;;;12.11;100.00
19128;BME280;9696;53.686;10.094;2023-05-11T06:10:42;101433.06;;;12.24;100.00
19128;BME280;9696;53.686;10.094;2023-05-11T06:13:12;101436.81;;;12.11;100.00
19128;BME280;9696;53.686;10.094;2023-05-11T06:15:43;101437.72;;;12.21;100.00
19128;BME280;9696;53.686;10.094;2023-05-11T06:18:22;101436.78;;;12.22;100.00
19128;BME280;9696;53.686;10.094;2023-05-11T06:20:51;101437.13;;;12.28;100.00
19128;BME280;9696;53.686;10.094;2023-05-11T06:23:21;101433.44;;;12.20;100.00
19128;BME280;9696;53.686;10.094;2023-05-11T06:25:52;101435.84;;;12.44;100.00
19128;BME280;9696;53.686;10.094;2023-05-11T06:28:21;101439.31;;;12.44;100.00
19128;BME280;9696;53.686;10.094;2023-05-11T06:30:56;101438.28;;;12.36;100.00
19128;BME280;9696;53.686;10.094;2023-05-11T06:33:28;101439.44;;;12.43;100.00
19128;BME280;9696;53.686;10.094;2023-05-11T06:35:58;101435.66;;;12.36;100.00
19128;BME280;9696;53.686;10.094;2023-05-11T06:38:32;101433.66;;;12.49;100.00
19128;BME280;9696;53.686;10.094;2023-05-11T06:41:03;101436.84;;;12.52;100.00
19128;BME280;9696;53.686;10.094;2023-05-11T06:43:33;101438.69;;;12.52;100.00
19128;BME280;9696;53.686;10.094;2023-05-11T06:46:03;101430.00;;;12.61;100.00
19128;BME280;9696;53.686;10.094;2023-05-11T06:48:32;101438.72;;;12.61;100.00
19128;BME280;9696;53.686;10.094;2023-05-11T06:51:01;101436.88;;;12.73;100.00
19128;BME280;9696;53.686;10.094;2023-05-11T06:53:31;101432.38;;;12.43;100.00
19128;BME280;9696;53.686;10.094;2023-05-11T06:56:01;101437.25;;;12.48;100.00
19128;BME280;9696;53.686;10.094;2023-05-11T06:58:30;101439.31;;;12.65;100.00
19128;BME280;9696;53.686;10.094;2023-05-11T07:00:59;101438.88;;;12.60;100.00
19128;BME280;9696;53.686;10.094;2023-05-11T07:03:29;101440.72;;;12.69;100.00
19128;BME280;9696;53.686;10.094;2023-05-11T07:05:58;101438.63;;;12.63;100.00
19128;BME280;9696;53.686;10.094;2023-05-11T07:08:27;101448.69;;;12.79;100.00
19128;BME280;9696;53.686;10.094;2023-05-11T07:10:56;101432.94;;;12.88;100.00
19128;BME280;9696;53.686;10.094;2023-05-11T07:13:27;101436.00;;;12.93;100.00
19128;BME280;9696;53.686;10.094;2023-05-11T07:15:56;101441.81;;;12.87;100.00
19128;BME280;9696;53.686;10.094;2023-05-11T07:18:25;101445.03;;;12.91;100.00
19128;BME280;9696;53.686;10.094;2023-05-11T07:20:54;101440.56;;;13.12;100.00
19128;BME280;9696;53.686;10.094;2023-05-11T07:23:23;101441.31;;;13.23;100.00
19128;BME280;9696;53.686;10.094;2023-05-11T07:25:52;101442.50;;;13.10;100.00
19128;BME280;9696;53.686;10.094;2023-05-11T07:28:25;101449.38;;;13.01;100.00
19128;BME280;9696;53.686;10.094;2023-05-11T07:30:54;101442.31;;;12.81;100.00
19128;BME280;9696;53.686;10.094;2023-05-11T07:33:24;101443.28;;;12.80;100.00
19128;BME280;9696;53.686;10.094;2023-05-11T07:35:53;101448.41;;;13.02;100.00
19128;BME280;9696;53.686;10.094;2023-05-11T07:38:22;101444.03;;;13.12;100.00
19128;BME280;9696;53.686;10.094;2023-05-11T07:40:51;101444.56;;;13.27;100.00
19128;BME280;9696;53.686;10.094;2023-05-11T07:43:20;101437.38;;;12.88;100.00
19128;BME280;9696;53.686;10.094;2023-05-11T07:45:51;101447.19;;;13.06;100.00
19128;BME280;9696;53.686;10.094;2023-05-11T07:48:20;101447.25;;;13.16;100.00
19128;BME280;9696;53.686;10.094;2023-05-11T07:50:50;101451.38;;;13.39;100.00
19128;BME280;9696;53.686;10.094;2023-05-11T07:53:19;101444.78;;;13.24;100.00
19128;BME280;9696;53.686;10.094;2023-05-11T07:55:48;101449.09;;;13.25;100.00
19128;BME280;9696;53.686;10.094;2023-05-11T07:58:18;101451.13;;;13.52;100.00
19128;BME280;9696;53.686;10.094;2023-05-11T08:00:47;101449.16;;;13.44;100.00
19128;BME280;9696;53.686;10.094;2023-05-11T08:03:17;101456.19;;;13.64;100.00
19128;BME280;9696;53.686;10.094;2023-05-11T08:05:46;101452.53;;;13.56;100.00
19128;BME280;9696;53.686;10.094;2023-05-11T08:08:16;101445.53;;;13.36;100.00
19128;BME280;9696;53.686;10.094;2023-05-11T08:10:45;101457.78;;;13.46;100.00
19128;BME280;9696;53.686;10.094;2023-05-11T08:13:14;101449.84;;;13.37;100.00
19128;BME280;9696;53.686;10.094;2023-05-11T08:15:44;101456.56;;;13.50;100.00
19128;BME280;9696;53.686;10.094;2023-05-11T08:18:13;101454.09;;;13.68;100.00
19128;BME280;9696;53.686;10.094;2023-05-11T08:20:44;101450.66;;;13.77;100.00
19128;BME280;9696;53.686;10.094;2023-05-11T08:23:13;101449.13;;;13.75;100.00
19128;BME280;9696;53.686;10.094;2023-05-11T08:25:52;101455.53;;;13.91;100.00
19128;BME280;9696;53.686;10.094;2023-05-11T08:28:22;101453.47;;;14.04;100.00
19128;BME280;9696;53.686;10.094;2023-05-11T08:30:55;101446.69;;;14.02;100.00
19128;BME280;9696;53.686;10.094;2023-05-11T08:33:25;101451.09;;;13.92;100.00
19128;BME280;9696;53.686;10.094;2023-05-11T08:36:07;101446.69;;;14.02;100.00
19128;BME280;9696;53.686;10.094;2023-05-11T08:38:37;101452.66;;;14.04;100.00
19128;BME280;9696;53.686;10.094;2023-05-11T08:41:06;101457.66;;;14.26;100.00
19128;BME280;9696;53.686;10.094;2023-05-11T08:43:36;101454.56;;;13.92;100.00
19128;BME280;9696;53.686;10.094;2023-05-11T08:46:07;101455.69;;;13.90;100.00
19128;BME280;9696;53.686;10.094;2023-05-11T08:48:39;101459.31;;;14.08;100.00
19128;BME280;9696;53.686;10.094;2023-05-11T08:51:10;101453.56;;;13.84;100.00
19128;BME280;9696;53.686;10.094;2023-05-11T08:53:39;101466.59;;;13.76;100.00
19128;BME280;9696;53.686;10.094;2023-05-11T08:56:09;101463.72;;;13.88;100.00
19128;BME280;9696;53.686;10.094;2023-05-11T08:58:40;101460.97;;;13.90;100.00
19128;BME280;9696;53.686;10.094;2023-05-11T09:01:10;101460.53;;;13.85;100.00
19128;BME280;9696;53.686;10.094;2023-05-11T09:03:40;101459.44;;;13.97;100.00
19128;BME280;9696;53.686;10.094;2023-05-11T09:06:12;101468.19;;;14.07;100.00
19128;BME280;9696;53.686;10.094;2023-05-11T09:08:43;101468.56;;;13.74;100.00
19128;BME280;9696;53.686;10.094;2023-05-11T09:11:13;101473.75;;;13.94;100.00
19128;BME280;9696;53.686;10.094;2023-05-11T09:13:42;101469.03;;;14.07;100.00
19128;BME280;9696;53.686;10.094;2023-05-11T09:16:11;101468.34;;;14.15;100.00
19128;BME280;9696;53.686;10.094;2023-05-11T09:19:01;101459.59;;;14.05;100.00
19128;BME280;9696;53.686;10.094;2023-05-11T09:21:32;101459.88;;;14.02;100.00
19128;BME280;9696;53.686;10.094;2023-05-11T09:24:02;101464.88;;;14.05;100.00
19128;BME280;9696;53.686;10.094;2023-05-11T09:26:33;101466.53;;;13.96;100.00
19128;BME280;9696;53.686;10.094;2023-05-11T09:29:04;101460.97;;;13.99;100.00
19128;BME280;9696;53.686;10.094;2023-05-11T09:31:40;101467.09;;;14.19;100.00
19128;BME280;9696;53.686;10.094;2023-05-11T09:34:11;101462.38;;;14.23;100.00
19128;BME280;9696;53.686;10.094;2023-05-11T09:36:43;101468.47;;;13.94;100.00
19128;BME280;9696;53.686;10.094;2023-05-11T09:39:13;101470.44;;;14.11;100.00
19128;BME280;9696;53.686;10.094;2023-05-11T09:41:49;101471.97;;;14.33;100.00
19128;BME280;9696;53.686;10.094;2023-05-11T09:44:19;101473.91;;;14.31;100.00
19128;BME280;9696;53.686;10.094;2023-05-11T09:46:48;101479.19;;;14.31;100.00
19128;BME280;9696;53.686;10.094;2023-05-11T09:49:17;101466.31;;;14.47;100.00
19128;BME280;9696;53.686;10.094;2023-05-11T09:51:49;101474.47;;;14.15;100.00
19128;BME280;9696;53.686;10.094;2023-05-11T09:54:28;101472.41;;;14.38;100.00
19128;BME280;9696;53.686;10.094;2023-05-11T09:56:57;101478.41;;;14.40;100.00
19128;BME280;9696;53.686;10.094;2023-05-11T09:59:37;101478.09;;;14.34;100.00
19128;BME280;9696;53.686;10.094;2023-05-11T10:02:21;101476.88;;;14.47;100.00
19128;BME280;9696;53.686;10.094;2023-05-11T10:04:51;101478.34;;;14.31;100.00
19128;BME280;9696;53.686;10.094;2023-05-11T10:07:27;101468.09;;;14.47;100.00
19128;BME280;9696;53.686;10.094;2023-05-11T10:09:57;101462.25;;;14.72;100.00
19128;BME280;9696;53.686;10.094;2023-05-11T10:12:28;101461.84;;;14.67;100.00
19128;BME280;9696;53.686;10.094;2023-05-11T10:15:02;101455.16;;;14.63;100.00
19128;BME280;9696;53.686;10.094;2023-05-11T10:17:32;101468.94;;;14.57;100.00
19128;BME280;9696;53.686;10.094;2023-05-11T10:20:02;101457.81;;;14.73;100.00
19128;BME280;9696;53.686;10.094;2023-05-11T10:22:34;101463.94;;;14.73;100.00
19128;BME280;9696;53.686;10.094;2023-05-11T10:25:04;101457.47;;;14.95;100.00
19128;BME280;9696;53.686;10.094;2023-05-11T10:27:33;101451.09;;;14.88;100.00
19128;BME280;9696;53.686;10.094;2023-05-11T10:30:06;101456.09;;;14.91;100.00
19128;BME280;9696;53.686;10.094;2023-05-11T10:32:38;101451.88;;;15.07;100.00
19128;BME280;9696;53.686;10.094;2023-05-11T10:35:08;101450.75;;;15.10;100.00
19128;BME280;9696;53.686;10.094;2023-05-11T10:37:40;101444.81;;;14.98;100.00
19128;BME280;9696;53.686;10.094;2023-05-11T10:40:10;101444.31;;;14.66;100.00
19128;BME280;9696;53.686;10.094;2023-05-11T10:45:39;101443.22;;;15.25;100.00
19128;BME280;9696;53.686;10.094;2023-05-11T10:51:45;101442.81;;;15.10;100.00
19128;BME280;9696;53.686;10.094;2023-05-11T10:54:32;101441.38;;;15.25;100.00
19128;BME280;9696;53.686;10.094;2023-05-11T10:57:12;101439.88;;;15.23;100.00
19128;BME280;9696;53.686;10.094;2023-05-11T11:00:11;101448.00;;;15.39;100.00
19128;BME280;9696;53.686;10.094;2023-05-11T11:02:48;101444.50;;;15.11;100.00
19128;BME280;9696;53.686;10.094;2023-05-11T11:05:32;101444.06;;;15.16;100.00
19128;BME280;9696;53.686;10.094;2023-05-11T11:08:02;101446.00;;;15.23;100.00
19128;BME280;9696;53.686;10.094;2023-05-11T11:10:34;101442.84;;;15.37;100.00
19128;BME280;9696;53.686;10.094;2023-05-11T11:13:06;101440.09;;;15.29;100.00
19128;BME280;9696;53.686;10.094;2023-05-11T11:16:09;101438.50;;;15.19;100.00
19128;BME280;9696;53.686;10.094;2023-05-11T11:18:43;101437.53;;;15.47;100.00
19128;BME280;9696;53.686;10.094;2023-05-11T11:21:12;101445.69;;;15.26;100.00
19128;BME280;9696;53.686;10.094;2023-05-11T11:23:44;101433.91;;;15.48;100.00
19128;BME280;9696;53.686;10.094;2023-05-11T11:26:44;101446.88;;;15.51;100.00
19128;BME280;9696;53.686;10.094;2023-05-11T11:29:10;101449.94;;;15.74;100.00
19128;BME280;9696;53.686;10.094;2023-05-11T11:31:41;101444.72;;;15.64;100.00
19128;BME280;9696;53.686;10.094;2023-05-11T11:34:32;101431.06;;;15.32;100.00
19128;BME280;9696;53.686;10.094;2023-05-11T11:37:08;101445.72;;;15.53;100.00
19128;BME280;9696;53.686;10.094;2023-05-11T11:39:51;101434.25;;;15.72;100.00
19128;BME280;9696;53.686;10.094;2023-05-11T11:42:42;101447.19;;;16.11;100.00
19128;BME280;9696;53.686;10.094;2023-05-11T11:45:36;101444.56;;;16.11;100.00
19128;BME280;9696;53.686;10.094;2023-05-11T11:48:15;101433.66;;;16.31;100.00
19128;BME280;9696;53.686;10.094;2023-05-11T11:50:49;101434.00;;;16.36;100.00
19128;BME280;9696;53.686;10.094;2023-05-11T11:56:40;101426.06;;;16.36;100.00
19128;BME280;9696;53.686;10.094;2023-05-11T11:59:11;101426.00;;;16.28;100.00
19128;BME280;9696;53.686;10.094;2023-05-11T12:01:44;101425.09;;;16.55;100.00
19128;BME280;9696;53.686;10.094;2023-05-11T12:04:37;101428.72;;;15.83;100.00
19128;BME280;9696;53.686;10.094;2023-05-11T12:07:08;101425.41;;;16.34;100.00
19128;BME280;9696;53.686;10.094;2023-05-11T12:09:40;101424.69;;;16.50;100.00
19128;BME280;9696;53.686;10.094;2023-05-11T12:12:09;101423.81;;;16.24;100.00
19128;BME280;9696;53.686;10.094;2023-05-11T12:14:39;101434.78;;;16.11;100.00
19128;BME280;9696;53.686;10.094;2023-05-11T12:17:24;101434.16;;;16.52;100.00
19128;BME280;9696;53.686;10.094;2023-05-11T12:20:09;101429.00;;;16.69;100.00
19128;BME280;9696;53.686;10.094;2023-05-11T12:22:39;101420.66;;;17.15;100.00
19128;BME280;9696;53.686;10.094;2023-05-11T12:25:09;101411.00;;;17.40;100.00
19128;BME280;9696;53.686;10.094;2023-05-11T12:27:47;101409.22;;;18.23;100.00
19128;BME280;9696;53.686;10.094;2023-05-11T12:30:21;101414.97;;;17.36;100.00
19128;BME280;9696;53.686;10.094;2023-05-11T12:32:52;101419.94;;;17.39;100.00
19128;BME280;9696;53.686;10.094;2023-05-11T12:35:25;101414.16;;;17.43;100.00
19128;BME280;9696;53.686;10.094;2023-05-11T12:37:56;101412.66;;;17.83;100.00
19128;BME280;9696;53.686;10.094;2023-05-11T12:40:25;101406.84;;;17.87;100.00
19128;BME280;9696;53.686;10.094;2023-05-11T12:42:56;101399.91;;;18.27;100.00
19128;BME280;9696;53.686;10.094;2023-05-11T12:45:26;101408.84;;;17.77;100.00
19128;BME280;9696;53.686;10.094;2023-05-11T12:47:58;101410.16;;;17.39;100.00
19128;BME280;9696;53.686;10.094;2023-05-11T12:50:27;101409.75;;;17.26;100.00
19128;BME280;9696;53.686;10.094;2023-05-11T12:53:11;101410.59;;;17.27;100.00
19128;BME280;9696;53.686;10.094;2023-05-11T12:55:42;101406.13;;;17.27;100.00
19128;BME280;9696;53.686;10.094;2023-05-11T12:58:12;101404.69;;;17.91;100.00
19128;BME280;9696;53.686;10.094;2023-05-11T13:00:52;101398.72;;;17.81;100.00
19128;BME280;9696;53.686;10.094;2023-05-11T13:03:24;101395.56;;;17.85;100.00
19128;BME280;9696;53.686;10.094;2023-05-11T13:06:04;101399.88;;;17.95;100.00
19128;BME280;9696;53.686;10.094;2023-05-11T13:08:33;101392.78;;;18.27;100.00
19128;BME280;9696;53.686;10.094;2023-05-11T13:11:19;101378.19;;;18.56;100.00
19128;BME280;9696;53.686;10.094;2023-05-11T13:13:49;101377.66;;;18.12;100.00